createdAt,value
2017-09-04T00:01:58.064Z,8.53
2017-09-04T00:04:26.252Z,5.80
2017-09-04T00:06:54.366Z,8.60
2017-09-04T00:09:22.448Z,6.37
2017-09-04T00:11:53.620Z,6.80
2017-09-04T00:14:21.715Z,8.37
2017-09-04T00:16:49.791Z,5.90
2017-09-04T00:19:17.896Z,7.63
2017-09-04T00:21:46.908Z,12.70
2017-09-04T00:24:14.992Z,7.00
2017-09-04T00:26:43.111Z,5.40
2017-09-04T00:29:11.209Z,7.80
2017-09-04T00:31:43.001Z,12.20
2017-09-04T00:34:14.723Z,4.57
2017-09-04T00:36:42.910Z,5.10
2017-09-04T00:39:11.823Z,8.10
2017-09-04T00:41:39.958Z,6.70
2017-09-04T00:44:08.056Z,6.97
2017-09-04T00:46:39.927Z,4.97
2017-09-04T00:49:08.829Z,9.00
2017-09-04T00:51:40.815Z,5.50
2017-09-04T00:54:09.971Z,4.53
2017-09-04T00:56:38.069Z,8.73
2017-09-04T00:59:06.189Z,5.87
2017-09-04T01:01:34.547Z,7.57
2017-09-04T01:04:02.665Z,6.57
2017-09-04T01:06:30.771Z,4.97
2017-09-04T01:08:58.985Z,9.33
2017-09-04T01:11:27.352Z,6.40
2017-09-04T01:13:55.696Z,5.40
2017-09-04T01:16:23.834Z,5.30
2017-09-04T01:18:51.924Z,6.27
2017-09-04T01:21:21.039Z,8.17
2017-09-04T01:23:49.381Z,9.07
2017-09-04T01:26:17.837Z,8.67
2017-09-04T01:28:56.152Z,8.40
2017-09-04T01:31:24.427Z,5.30
2017-09-04T01:33:53.295Z,6.37
2017-09-04T01:36:22.253Z,7.53
2017-09-04T01:38:50.411Z,6.87
2017-09-04T01:41:18.756Z,9.27
2017-09-04T01:43:47.771Z,8.20
2017-09-04T01:46:16.792Z,9.60
2017-09-04T01:48:44.910Z,7.50
2017-09-04T01:51:13.028Z,6.80
2017-09-04T01:53:41.464Z,6.67
2017-09-04T01:56:10.482Z,10.07
2017-09-04T01:58:39.364Z,7.93
2017-09-04T02:01:07.463Z,6.10
2017-09-04T02:03:35.689Z,10.50
2017-09-04T02:06:03.808Z,12.90
2017-09-04T02:08:31.900Z,9.93
2017-09-04T02:11:00.000Z,8.43
2017-09-04T02:13:28.094Z,6.00
2017-09-04T02:15:56.236Z,7.00
2017-09-04T02:18:24.398Z,6.87
2017-09-04T02:20:52.547Z,9.70
2017-09-04T02:23:20.686Z,6.70
2017-09-04T02:25:48.782Z,6.67
2017-09-04T02:28:16.867Z,5.23
2017-09-04T02:30:44.971Z,6.43
2017-09-04T02:33:13.056Z,6.30
2017-09-04T02:35:41.445Z,6.73
2017-09-04T02:38:09.531Z,18.67
2017-09-04T02:40:37.639Z,6.40
2017-09-04T02:43:05.748Z,7.77
2017-09-04T02:45:33.922Z,9.57
2017-09-04T02:48:02.036Z,5.27
2017-09-04T02:50:30.372Z,6.30
2017-09-04T02:52:58.760Z,6.60
2017-09-04T02:55:26.859Z,7.33
2017-09-04T02:57:54.973Z,8.50
2017-09-04T03:00:23.147Z,6.50
2017-09-04T03:02:52.212Z,7.17
2017-09-04T03:05:20.309Z,15.43
2017-09-04T03:07:48.535Z,6.70
2017-09-04T03:10:19.920Z,9.57
2017-09-04T03:12:48.183Z,7.20
2017-09-04T03:15:16.515Z,7.20
2017-09-04T03:17:44.608Z,6.67
2017-09-04T03:20:12.719Z,10.93
2017-09-04T03:22:40.876Z,6.47
2017-09-04T03:25:09.291Z,7.93
2017-09-04T03:27:37.392Z,8.90
2017-09-04T03:30:05.492Z,6.37
2017-09-04T03:32:33.595Z,9.63
2017-09-04T03:35:01.680Z,8.23
2017-09-04T03:37:29.789Z,7.20
2017-09-04T03:39:57.879Z,9.73
2017-09-04T03:42:25.991Z,6.20
2017-09-04T03:44:54.071Z,9.17
2017-09-04T03:47:22.233Z,7.03
2017-09-04T03:49:50.333Z,10.07
2017-09-04T03:52:18.428Z,9.07
2017-09-04T03:54:46.604Z,10.03
2017-09-04T03:57:14.715Z,5.60
2017-09-04T03:59:43.492Z,8.50
2017-09-04T04:02:11.591Z,7.77
2017-09-04T04:04:39.674Z,8.60
2017-09-04T04:07:08.143Z,9.23
2017-09-04T04:09:37.032Z,7.50
2017-09-04T04:12:05.166Z,9.10
2017-09-04T04:14:33.252Z,9.70
2017-09-04T04:17:01.379Z,12.00
2017-09-04T04:19:29.479Z,6.53
2017-09-04T04:21:57.589Z,13.37
2017-09-04T04:24:26.664Z,7.00
2017-09-04T04:26:54.782Z,13.60
2017-09-04T04:29:26.189Z,8.23
2017-09-04T04:31:54.299Z,7.50
2017-09-04T04:34:25.871Z,7.30
2017-09-04T04:36:53.955Z,7.67
2017-09-04T04:39:22.480Z,8.30
2017-09-04T04:41:50.920Z,8.63
2017-09-04T04:44:19.012Z,10.73
2017-09-04T04:46:47.124Z,10.00
2017-09-04T04:49:19.339Z,8.47
2017-09-04T04:51:47.448Z,9.63
2017-09-04T04:54:15.577Z,9.17
2017-09-04T04:56:43.915Z,8.37
2017-09-04T04:59:12.987Z,12.57
2017-09-04T05:01:42.442Z,9.07
2017-09-04T05:04:10.840Z,10.10
2017-09-04T05:06:38.915Z,7.90
2017-09-04T05:09:07.055Z,7.67
2017-09-04T05:11:36.387Z,10.63
2017-09-04T05:14:08.651Z,7.43
2017-09-04T05:16:36.758Z,6.60
2017-09-04T05:19:04.837Z,13.83
2017-09-04T05:21:33.005Z,7.40
2017-09-04T05:24:01.093Z,9.60
2017-09-04T05:26:30.224Z,12.17
2017-09-04T05:28:58.336Z,9.23
2017-09-04T05:31:26.423Z,15.33
2017-09-04T05:33:54.746Z,6.67
2017-09-04T05:36:22.884Z,15.47
2017-09-04T05:38:50.973Z,9.90
2017-09-04T05:41:19.075Z,10.30
2017-09-04T05:43:47.177Z,10.57
2017-09-04T05:46:16.205Z,9.43
2017-09-04T05:48:44.315Z,9.77
2017-09-04T05:51:12.434Z,12.77
2017-09-04T05:53:44.191Z,16.27
2017-09-04T05:56:15.889Z,16.50
2017-09-04T05:58:44.591Z,12.57
2017-09-04T06:01:12.708Z,14.77
2017-09-04T06:03:40.817Z,22.67
2017-09-04T06:06:08.952Z,15.77
2017-09-04T06:08:37.819Z,15.93
2017-09-04T06:11:07.051Z,17.73
2017-09-04T06:13:35.188Z,28.77
2017-09-04T06:16:03.543Z,32.70
2017-09-04T06:18:35.794Z,20.47
2017-09-04T06:21:03.904Z,18.10
2017-09-04T06:23:32.913Z,17.13
2017-09-04T06:26:01.039Z,17.37
2017-09-04T06:28:29.251Z,17.40
2017-09-04T06:30:57.644Z,14.80
2017-09-04T06:33:25.832Z,16.03
2017-09-04T06:35:53.979Z,18.57
2017-09-04T06:38:22.455Z,17.03
2017-09-04T06:40:54.412Z,15.33
2017-09-04T06:43:22.511Z,14.47
2017-09-04T06:45:50.848Z,14.70
2017-09-04T06:48:18.968Z,18.00
2017-09-04T06:50:47.073Z,14.80
2017-09-04T06:53:15.193Z,16.30
2017-09-04T06:55:43.363Z,16.53
2017-09-04T06:58:11.463Z,14.37
2017-09-04T07:00:39.803Z,19.83
2017-09-04T07:03:07.947Z,16.80
2017-09-04T07:05:36.267Z,14.70
2017-09-04T07:08:07.913Z,17.37
2017-09-04T07:10:36.724Z,18.67
2017-09-04T07:13:05.076Z,23.27
2017-09-04T07:15:33.160Z,21.20
2017-09-04T07:18:01.559Z,17.57
2017-09-04T07:20:30.413Z,18.17
2017-09-04T07:22:59.428Z,20.13
2017-09-04T07:25:27.523Z,26.27
2017-09-04T07:27:55.895Z,16.30
2017-09-04T07:30:24.009Z,21.03
2017-09-04T07:32:52.356Z,21.17
2017-09-04T07:35:20.544Z,18.80
2017-09-04T07:37:48.638Z,16.77
2017-09-04T07:40:16.759Z,20.13
2017-09-04T07:42:44.876Z,16.73
2017-09-04T07:45:12.968Z,18.80
2017-09-04T07:47:41.087Z,20.50
2017-09-04T07:50:09.411Z,18.47
2017-09-04T07:52:37.530Z,17.13
2017-09-04T07:55:05.668Z,17.37
2017-09-04T07:57:33.857Z,20.43
2017-09-04T08:00:02.871Z,17.17
2017-09-04T08:02:31.942Z,14.80
2017-09-04T08:05:03.196Z,19.03
2017-09-04T08:07:31.556Z,16.07
2017-09-04T08:10:00.587Z,16.30
2017-09-04T08:12:28.940Z,18.47
2017-09-04T08:14:57.727Z,15.50
2017-09-04T08:17:27.147Z,14.90
2017-09-04T08:19:55.255Z,19.37
2017-09-04T08:22:23.596Z,15.83
2017-09-04T08:24:52.012Z,18.90
2017-09-04T08:27:20.377Z,17.00
2017-09-04T08:29:48.490Z,20.90
2017-09-04T08:32:16.656Z,15.67
2017-09-04T08:34:46.690Z,17.10
2017-09-04T08:37:14.807Z,15.43
2017-09-04T08:39:43.035Z,18.37
2017-09-04T08:42:11.144Z,15.57
2017-09-04T08:44:39.286Z,17.13
2017-09-04T08:47:08.344Z,19.40
2017-09-04T08:49:36.477Z,13.67
2017-09-04T08:52:08.149Z,16.07
2017-09-04T08:54:36.292Z,15.17
2017-09-04T08:57:04.396Z,22.40
2017-09-04T08:59:32.519Z,15.03
2017-09-04T09:02:00.643Z,21.10
2017-09-04T09:04:28.814Z,28.00
2017-09-04T09:06:57.651Z,25.13
2017-09-04T09:09:26.778Z,19.53
2017-09-04T09:11:54.857Z,16.87
2017-09-04T09:14:22.999Z,24.30
2017-09-04T09:16:51.154Z,21.97
2017-09-04T09:19:19.522Z,17.63
2017-09-04T09:21:47.879Z,18.83
2017-09-04T09:24:16.009Z,16.60
2017-09-04T09:26:44.103Z,16.47
2017-09-04T09:29:12.337Z,15.17
2017-09-04T09:31:40.780Z,15.50
2017-09-04T09:34:08.881Z,16.33
2017-09-04T09:36:37.107Z,16.50
2017-09-04T09:39:05.221Z,12.40
2017-09-04T09:41:33.327Z,12.37
2017-09-04T09:44:01.436Z,14.47
2017-09-04T09:46:30.267Z,12.63
2017-09-04T09:48:58.479Z,14.90
2017-09-04T09:51:26.579Z,14.80
2017-09-04T09:53:54.684Z,15.83
2017-09-04T09:56:22.787Z,23.03
2017-09-04T09:58:50.975Z,14.97
2017-09-04T10:01:22.736Z,14.90
2017-09-04T10:03:50.848Z,13.30
2017-09-04T10:06:18.976Z,15.50
2017-09-04T10:08:47.076Z,11.67
2017-09-04T10:11:15.174Z,21.77
2017-09-04T10:13:43.304Z,10.03
2017-09-04T10:16:11.387Z,14.57
2017-09-04T10:18:39.496Z,16.20
2017-09-04T10:21:08.422Z,12.27
2017-09-04T10:23:36.591Z,14.23
2017-09-04T10:26:04.714Z,15.40
2017-09-04T10:28:32.819Z,13.10
2017-09-04T10:31:00.911Z,14.50
2017-09-04T10:33:29.039Z,13.43
2017-09-04T10:35:57.158Z,12.90
2017-09-04T10:38:25.256Z,13.80
2017-09-04T10:40:53.352Z,15.20
2017-09-04T10:43:21.457Z,12.57
2017-09-04T10:45:49.550Z,15.93
2017-09-04T10:48:17.653Z,12.97
2017-09-04T10:50:45.757Z,12.27
2017-09-04T10:53:13.835Z,13.30
2017-09-04T10:55:41.956Z,14.30
2017-09-04T10:58:10.051Z,10.73
2017-09-04T11:00:38.186Z,13.60
2017-09-04T11:03:06.267Z,13.13
2017-09-04T11:05:34.379Z,11.20
2017-09-04T11:08:02.490Z,11.80
2017-09-04T11:10:30.572Z,11.80
2017-09-04T11:12:58.676Z,12.70
2017-09-04T11:15:26.922Z,10.17
2017-09-04T11:17:55.015Z,17.13
2017-09-04T11:20:23.167Z,12.63
2017-09-04T11:22:51.252Z,8.77
2017-09-04T11:25:19.338Z,11.07
2017-09-04T11:27:47.448Z,9.57
2017-09-04T11:30:15.548Z,8.63
2017-09-04T11:32:43.635Z,10.80
2017-09-04T11:35:11.736Z,11.90
2017-09-04T11:37:39.849Z,10.90
2017-09-04T11:40:08.029Z,10.93
2017-09-04T11:42:36.155Z,9.40
2017-09-04T11:45:05.292Z,8.93
2017-09-04T11:47:33.384Z,7.57
2017-09-04T11:50:01.731Z,11.90
2017-09-04T11:52:29.820Z,10.00
2017-09-04T11:54:57.943Z,11.83
2017-09-04T11:57:26.120Z,9.60
2017-09-04T11:59:55.147Z,10.73
2017-09-04T12:02:23.232Z,10.50
2017-09-04T12:04:51.356Z,12.57
2017-09-04T12:07:22.717Z,8.10
2017-09-04T12:09:50.812Z,8.70
2017-09-04T12:12:18.944Z,8.77
2017-09-04T12:14:47.033Z,7.27
2017-09-04T12:17:15.227Z,11.00
2017-09-04T12:19:43.303Z,8.50
2017-09-04T12:22:11.398Z,9.27
2017-09-04T12:24:39.486Z,8.73
2017-09-04T12:27:07.668Z,6.57
2017-09-04T12:29:35.765Z,5.70
2017-09-04T12:32:03.851Z,8.43
2017-09-04T12:34:31.992Z,8.60
2017-09-04T12:37:00.094Z,5.17
2017-09-04T12:39:28.510Z,7.37
2017-09-04T12:41:56.633Z,8.10
2017-09-04T12:44:28.383Z,5.20
2017-09-04T12:46:56.480Z,6.70
2017-09-04T12:49:24.562Z,8.20
2017-09-04T12:51:52.686Z,6.27
2017-09-04T12:54:24.259Z,7.00
2017-09-04T12:56:52.369Z,5.17
2017-09-04T12:59:20.528Z,5.20
2017-09-04T13:01:48.648Z,5.47
2017-09-04T13:04:16.756Z,5.70
2017-09-04T13:06:44.836Z,5.53
2017-09-04T13:09:12.965Z,5.27
2017-09-04T13:11:46.599Z,5.30
2017-09-04T13:14:20.167Z,8.80
2017-09-04T13:16:53.837Z,6.60
2017-09-04T13:19:27.481Z,6.37
2017-09-04T13:22:04.551Z,4.97
2017-09-04T13:24:38.510Z,5.77
2017-09-04T13:27:18.233Z,4.27
2017-09-04T13:29:52.688Z,5.10
2017-09-04T13:32:26.799Z,4.67
2017-09-04T13:35:01.502Z,5.23
2017-09-04T13:37:30.770Z,4.97
2017-09-04T13:40:04.701Z,4.20
2017-09-04T13:42:38.241Z,3.30
2017-09-04T13:45:11.030Z,5.70
2017-09-04T13:50:43.228Z,5.93
2017-09-04T13:53:17.866Z,3.47
2017-09-04T13:55:51.719Z,5.50
2017-09-04T14:01:27.733Z,4.77
2017-09-04T14:04:01.712Z,5.80
2017-09-04T14:06:30.220Z,4.90
2017-09-04T14:09:04.892Z,6.33
2017-09-04T14:11:39.703Z,4.90
2017-09-04T14:14:13.547Z,5.30
2017-09-04T14:16:47.497Z,5.10
2017-09-04T14:19:15.596Z,5.07
2017-09-04T14:21:43.971Z,4.10
2017-09-04T14:24:13.030Z,4.90
2017-09-04T14:26:41.139Z,3.37
2017-09-04T14:29:09.533Z,4.20
2017-09-04T14:31:37.897Z,5.10
2017-09-04T14:34:06.931Z,4.10
2017-09-04T14:36:35.023Z,5.07
2017-09-04T14:39:03.665Z,7.80
2017-09-04T14:41:32.094Z,4.20
2017-09-04T14:46:59.729Z,4.00
2017-09-04T14:49:31.421Z,9.93
2017-09-04T14:51:59.571Z,3.60
2017-09-04T14:54:27.968Z,4.30
2017-09-04T14:56:56.816Z,3.20
2017-09-04T14:59:24.920Z,4.30
2017-09-04T15:01:53.261Z,15.33
2017-09-04T15:04:21.682Z,3.67
2017-09-04T15:06:49.900Z,5.87
2017-09-04T15:09:18.095Z,4.57
2017-09-04T15:11:46.216Z,3.27
2017-09-04T15:14:15.222Z,4.03
2017-09-04T15:16:43.407Z,3.80
2017-09-04T15:19:11.597Z,6.37
2017-09-04T15:21:43.253Z,4.90
2017-09-04T15:24:15.044Z,3.83
2017-09-04T15:26:43.370Z,3.90
2017-09-04T15:29:11.475Z,7.70
2017-09-04T15:31:39.586Z,8.10
2017-09-04T15:34:07.912Z,2.97
2017-09-04T15:36:39.177Z,3.23
2017-09-04T15:39:07.538Z,5.63
2017-09-04T15:41:35.636Z,3.63
2017-09-04T15:44:03.821Z,6.00
2017-09-04T15:46:34.883Z,5.20
2017-09-04T15:49:03.789Z,8.00
2017-09-04T15:51:31.895Z,4.03
2017-09-04T15:54:00.102Z,7.27
2017-09-04T15:56:28.458Z,5.93
2017-09-04T15:58:56.692Z,7.03
2017-09-04T16:01:24.846Z,5.93
2017-09-04T16:03:52.944Z,3.13
2017-09-04T16:06:26.713Z,4.10
2017-09-04T16:08:55.062Z,5.93
2017-09-04T16:11:25.528Z,3.97
2017-09-04T16:13:53.615Z,8.50
2017-09-04T16:16:27.727Z,5.30
2017-09-04T16:18:59.645Z,5.63
2017-09-04T16:21:27.784Z,3.63
2017-09-04T16:23:56.639Z,3.70
2017-09-04T16:29:32.424Z,6.47
2017-09-04T16:32:00.543Z,6.27
2017-09-04T16:34:34.196Z,4.03
2017-09-04T16:37:14.265Z,5.17
2017-09-04T16:39:43.852Z,6.40
2017-09-04T16:42:19.884Z,8.03
2017-09-04T16:44:51.671Z,9.43
2017-09-04T16:47:20.127Z,4.30
2017-09-04T16:49:56.844Z,3.27
2017-09-04T16:52:27.799Z,7.03
2017-09-04T16:55:06.875Z,3.73
2017-09-04T16:57:36.128Z,6.20
2017-09-04T17:00:04.265Z,7.83
2017-09-04T17:02:32.351Z,5.70
2017-09-04T17:05:04.392Z,12.17
2017-09-04T17:07:33.419Z,5.60
2017-09-04T17:10:02.239Z,8.60
2017-09-04T17:12:34.762Z,4.90
2017-09-04T17:15:03.531Z,4.20
2017-09-04T17:17:38.884Z,3.30
2017-09-04T17:20:09.844Z,7.63
2017-09-04T17:22:40.261Z,7.50
2017-09-04T17:25:08.973Z,6.00
2017-09-04T17:27:37.126Z,5.60
2017-09-04T17:30:05.463Z,5.07
2017-09-04T17:32:33.558Z,5.03
2017-09-04T17:35:01.689Z,7.50
2017-09-04T17:37:33.176Z,3.77
2017-09-04T17:40:02.187Z,3.00
2017-09-04T17:42:30.339Z,6.60
2017-09-04T17:44:58.700Z,8.87
2017-09-04T17:47:26.981Z,5.60
2017-09-04T17:49:55.528Z,6.17
2017-09-04T17:52:23.656Z,6.80
2017-09-04T17:54:52.758Z,4.37
2017-09-04T17:57:24.371Z,4.60
2017-09-04T17:59:52.720Z,6.10
2017-09-04T18:02:22.678Z,3.43
2017-09-04T18:04:50.796Z,4.13
2017-09-04T18:07:18.920Z,7.00
2017-09-04T18:09:47.018Z,5.60
2017-09-04T18:12:15.443Z,20.80
2017-09-04T18:14:44.040Z,5.27
2017-09-04T18:17:13.164Z,5.63
2017-09-04T18:19:42.343Z,8.03
2017-09-04T18:22:13.548Z,3.80
2017-09-04T18:24:41.836Z,6.80
2017-09-04T18:27:11.312Z,5.63
2017-09-04T18:29:42.931Z,6.40
2017-09-04T18:32:24.637Z,3.23
2017-09-04T18:34:59.108Z,5.13
2017-09-04T18:37:39.131Z,5.53
2017-09-04T18:40:13.901Z,5.63
2017-09-04T18:42:48.548Z,5.50
2017-09-04T18:45:17.916Z,5.60
2017-09-04T18:47:50.712Z,4.50
2017-09-04T18:50:31.328Z,4.00
2017-09-04T18:52:59.632Z,3.83
2017-09-04T18:55:30.568Z,6.53
2017-09-04T18:58:09.630Z,3.63
2017-09-04T19:00:38.079Z,4.43
2017-09-04T19:03:09.892Z,4.77
2017-09-04T19:05:48.530Z,4.33
2017-09-04T19:08:22.257Z,2.60
2017-09-04T19:10:51.414Z,5.20
2017-09-04T19:13:21.872Z,10.23
2017-09-04T19:15:52.802Z,7.13
2017-09-04T19:18:21.260Z,6.27
2017-09-04T19:20:53.968Z,10.00
2017-09-04T19:23:24.068Z,4.57
2017-09-04T19:25:53.158Z,5.37
2017-09-04T19:28:22.660Z,4.97
2017-09-04T19:30:54.001Z,5.30
2017-09-04T19:33:23.358Z,4.17
2017-09-04T19:36:04.816Z,5.40
2017-09-04T19:38:37.105Z,6.23
2017-09-04T19:41:07.763Z,4.57
2017-09-04T19:43:42.184Z,3.87
2017-09-04T19:46:17.164Z,3.60
2017-09-04T19:48:50.427Z,6.17
2017-09-04T19:51:18.585Z,3.60
2017-09-04T19:53:46.708Z,5.60
2017-09-04T19:56:14.849Z,10.33
2017-09-04T19:58:43.851Z,6.97
2017-09-04T20:01:12.165Z,5.80
2017-09-04T20:03:44.693Z,6.80
2017-09-04T20:06:14.799Z,6.00
2017-09-04T20:08:45.076Z,8.10
2017-09-04T20:11:32.484Z,4.83
2017-09-04T20:14:02.872Z,6.40
2017-09-04T20:16:34.125Z,7.40
2017-09-04T20:19:15.876Z,8.83
2017-09-04T20:21:51.230Z,7.03
2017-09-04T20:24:22.287Z,4.00
2017-09-04T20:26:55.516Z,5.10
2017-09-04T20:29:25.656Z,4.93
2017-09-04T20:31:54.190Z,5.33
2017-09-04T20:34:23.451Z,6.80
2017-09-04T20:36:51.907Z,6.00
2017-09-04T20:39:20.295Z,9.83
2017-09-04T20:41:48.433Z,5.73
2017-09-04T20:44:16.556Z,6.37
2017-09-04T20:46:44.731Z,7.47
2017-09-04T20:49:14.256Z,6.00
2017-09-04T20:51:42.384Z,6.97
2017-09-04T20:54:10.588Z,5.67
2017-09-04T20:56:38.811Z,10.33
2017-09-04T20:59:06.916Z,6.07
2017-09-04T21:01:37.959Z,6.73
2017-09-04T21:04:06.070Z,6.47
2017-09-04T21:06:34.171Z,8.30
2017-09-04T21:09:02.289Z,7.63
2017-09-04T21:11:30.452Z,5.23
2017-09-04T21:13:58.553Z,5.40
2017-09-04T21:16:26.699Z,4.27
2017-09-04T21:18:54.825Z,4.67
2017-09-04T21:21:22.960Z,4.97
2017-09-04T21:23:51.340Z,5.27
2017-09-04T21:26:19.463Z,4.80
2017-09-04T21:28:47.560Z,4.20
2017-09-04T21:31:15.991Z,5.50
2017-09-04T21:33:44.340Z,4.80
2017-09-04T21:36:12.723Z,5.90
2017-09-04T21:38:40.846Z,7.57
2017-09-04T21:41:09.300Z,7.80
2017-09-04T21:43:37.768Z,6.90
2017-09-04T21:46:05.885Z,6.70
2017-09-04T21:48:34.299Z,6.83
2017-09-04T21:51:02.688Z,10.40
2017-09-04T21:53:31.373Z,8.30
2017-09-04T21:55:59.627Z,9.33
2017-09-04T21:58:27.724Z,10.87
2017-09-04T22:00:55.861Z,8.27
2017-09-04T22:03:24.593Z,13.30
2017-09-04T22:05:52.935Z,8.20
2017-09-04T22:08:21.016Z,6.90
2017-09-04T22:10:49.135Z,6.90
2017-09-04T22:13:17.371Z,7.00
2017-09-04T22:15:46.271Z,13.60
2017-09-04T22:18:14.688Z,9.23
2017-09-04T22:20:42.787Z,16.53
2017-09-04T22:23:11.074Z,14.93
2017-09-04T22:25:39.225Z,9.87
2017-09-04T22:28:07.596Z,12.73
2017-09-04T22:30:36.021Z,8.00
2017-09-04T22:33:04.138Z,7.07
2017-09-04T22:35:32.256Z,8.20
2017-09-04T22:38:00.644Z,10.80
2017-09-04T22:40:29.677Z,5.83
2017-09-04T22:42:57.898Z,9.80
2017-09-04T22:45:26.063Z,6.27
2017-09-04T22:47:54.486Z,5.00
2017-09-04T22:50:22.839Z,5.73
2017-09-04T22:52:51.932Z,7.97
2017-09-04T22:55:20.062Z,6.50
2017-09-04T22:57:48.177Z,8.20
2017-09-04T23:00:17.213Z,10.70
2017-09-04T23:02:45.345Z,8.03
2017-09-04T23:05:14.266Z,9.03
2017-09-04T23:07:45.616Z,16.10
2017-09-04T23:10:13.711Z,12.00
2017-09-04T23:12:42.075Z,11.97
2017-09-04T23:15:10.208Z,10.10
2017-09-04T23:17:38.304Z,13.93
2017-09-04T23:20:06.420Z,10.83
2017-09-04T23:22:34.576Z,9.57
2017-09-04T23:25:04.523Z,10.17
2017-09-04T23:27:32.612Z,10.23
2017-09-04T23:30:00.720Z,10.40
2017-09-04T23:32:28.821Z,10.20
2017-09-04T23:34:57.025Z,11.87
2017-09-04T23:37:25.132Z,10.83
2017-09-04T23:39:53.471Z,8.77
2017-09-04T23:42:22.409Z,14.07
2017-09-04T23:44:50.733Z,9.27
2017-09-04T23:47:18.847Z,10.10
2017-09-04T23:49:46.960Z,8.90
2017-09-04T23:52:15.072Z,12.20
2017-09-04T23:54:43.442Z,14.20
2017-09-04T23:57:11.799Z,10.23
2017-09-04T23:59:40.725Z,10.77
